sensor_id;sensor_type;location;lat;lon;timestamp;temperature;humidity
6627;DHT22;3349;49.830;8.748;2023-02-28T00:00:10;-1.30;59.80
6627;DHT22;3349;49.830;8.748;2023-02-28T00:02:38;-1.30;59.80
6627;DHT22;3349;49.830;8.748;2023-02-28T00:05:06;-1.30;59.50
6627;DHT22;3349;49.830;8.748;2023-02-28T00:07:34;-1.40;59.80
6627;DHT22;3349;49.830;8.748;2023-02-28T00:10:01;-1.50;60.20
6627;DHT22;3349;49.830;8.748;2023-02-28T00:12:27;-1.40;61.10
6627;DHT22;3349;49.830;8.748;2023-02-28T00:14:56;-1.50;61.10
6627;DHT22;3349;49.830;8.748;2023-02-28T00:17:22;-1.50;61.20
6627;DHT22;3349;49.830;8.748;2023-02-28T00:19:50;-1.50;61.00
6627;DHT22;3349;49.830;8.748;2023-02-28T00:22:19;-1.50;60.90
6627;DHT22;3349;49.830;8.748;2023-02-28T00:24:46;-1.50;61.50
6627;DHT22;3349;49.830;8.748;2023-02-28T00:27:14;-1.60;61.50
6627;DHT22;3349;49.830;8.748;2023-02-28T00:29:40;-1.50;61.90
6627;DHT22;3349;49.830;8.748;2023-02-28T00:32:08;-1.60;61.90
6627;DHT22;3349;49.830;8.748;2023-02-28T00:34:35;-1.60;62.10
6627;DHT22;3349;49.830;8.748;2023-02-28T00:37:04;-1.70;61.90
6627;DHT22;3349;49.830;8.748;2023-02-28T00:39:32;-1.80;61.90
6627;DHT22;3349;49.830;8.748;2023-02-28T00:41:59;-1.80;62.80
6627;DHT22;3349;49.830;8.748;2023-02-28T00:44:26;-1.80;63.80
6627;DHT22;3349;49.830;8.748;2023-02-28T00:46:53;-1.80;64.00
6627;DHT22;3349;49.830;8.748;2023-02-28T00:49:21;-1.90;63.90
6627;DHT22;3349;49.830;8.748;2023-02-28T00:51:47;-1.90;63.90
6627;DHT22;3349;49.830;8.748;2023-02-28T00:54:15;-2.00;63.80
6627;DHT22;3349;49.830;8.748;2023-02-28T00:56:42;-2.00;64.40
6627;DHT22;3349;49.830;8.748;2023-02-28T00:59:09;-2.00;64.40
6627;DHT22;3349;49.830;8.748;2023-02-28T01:01:36;-2.10;64.60
6627;DHT22;3349;49.830;8.748;2023-02-28T01:04:03;-2.10;64.70
6627;DHT22;3349;49.830;8.748;2023-02-28T01:06:32;-2.20;64.80
6627;DHT22;3349;49.830;8.748;2023-02-28T01:08:59;-2.20;65.40
6627;DHT22;3349;49.830;8.748;2023-02-28T01:11:26;-2.20;66.30
6627;DHT22;3349;49.830;8.748;2023-02-28T01:13:53;-2.20;66.30
6627;DHT22;3349;49.830;8.748;2023-02-28T01:16:19;-2.20;66.40
6627;DHT22;3349;49.830;8.748;2023-02-28T01:18:46;-2.10;67.20
6627;DHT22;3349;49.830;8.748;2023-02-28T01:21:15;-2.20;66.80
6627;DHT22;3349;49.830;8.748;2023-02-28T01:23:44;-2.10;66.30
6627;DHT22;3349;49.830;8.748;2023-02-28T01:26:13;-2.10;66.90
6627;DHT22;3349;49.830;8.748;2023-02-28T01:28:40;-2.10;66.80
6627;DHT22;3349;49.830;8.748;2023-02-28T01:31:08;-2.10;66.80
6627;DHT22;3349;49.830;8.748;2023-02-28T01:33:35;-2.10;66.50
6627;DHT22;3349;49.830;8.748;2023-02-28T01:36:04;-2.10;66.80
6627;DHT22;3349;49.830;8.748;2023-02-28T01:38:33;-2.20;66.80
6627;DHT22;3349;49.830;8.748;2023-02-28T01:41:01;-2.20;66.80
6627;DHT22;3349;49.830;8.748;2023-02-28T01:43:29;-2.20;66.90
6627;DHT22;3349;49.830;8.748;2023-02-28T01:45:57;-2.20;67.10
6627;DHT22;3349;49.830;8.748;2023-02-28T01:48:26;-2.20;68.10
6627;DHT22;3349;49.830;8.748;2023-02-28T01:50:55;-2.20;67.70
6627;DHT22;3349;49.830;8.748;2023-02-28T01:53:32;-2.10;68.80
6627;DHT22;3349;49.830;8.748;2023-02-28T01:56:04;-2.00;69.00
6627;DHT22;3349;49.830;8.748;2023-02-28T01:58:31;-2.10;68.60
6627;DHT22;3349;49.830;8.748;2023-02-28T02:00:58;-2.00;69.00
6627;DHT22;3349;49.830;8.748;2023-02-28T02:03:25;-2.10;68.50
6627;DHT22;3349;49.830;8.748;2023-02-28T02:05:52;-2.10;69.00
6627;DHT22;3349;49.830;8.748;2023-02-28T02:08:21;-2.00;69.10
6627;DHT22;3349;49.830;8.748;2023-02-28T02:10:50;-2.00;69.00
6627;DHT22;3349;49.830;8.748;2023-02-28T02:13:35;-2.00;69.50
6627;DHT22;3349;49.830;8.748;2023-02-28T02:16:13;-2.00;69.40
6627;DHT22;3349;49.830;8.748;2023-02-28T02:18:44;-1.90;69.40
6627;DHT22;3349;49.830;8.748;2023-02-28T02:21:26;-1.90;69.00
6627;DHT22;3349;49.830;8.748;2023-02-28T02:27:10;-1.90;68.30
6627;DHT22;3349;49.830;8.748;2023-02-28T02:30:08;-1.80;68.20
6627;DHT22;3349;49.830;8.748;2023-02-28T02:33:03;-1.80;68.50
6627;DHT22;3349;49.830;8.748;2023-02-28T02:35:37;-1.80;68.40
6627;DHT22;3349;49.830;8.748;2023-02-28T02:38:10;-1.80;68.30
6627;DHT22;3349;49.830;8.748;2023-02-28T02:40:43;-1.90;68.20
6627;DHT22;3349;49.830;8.748;2023-02-28T02:43:15;-1.90;68.20
6627;DHT22;3349;49.830;8.748;2023-02-28T02:45:46;-1.90;68.30
6627;DHT22;3349;49.830;8.748;2023-02-28T02:48:17;-1.90;67.90
6627;DHT22;3349;49.830;8.748;2023-02-28T02:50:51;-1.80;68.60
6627;DHT22;3349;49.830;8.748;2023-02-28T02:53:23;-1.90;67.30
6627;DHT22;3349;49.830;8.748;2023-02-28T02:55:52;-2.00;67.00
6627;DHT22;3349;49.830;8.748;2023-02-28T02:58:23;-2.00;68.20
6627;DHT22;3349;49.830;8.748;2023-02-28T03:00:53;-2.10;68.10
6627;DHT22;3349;49.830;8.748;2023-02-28T03:03:21;-2.10;67.80
6627;DHT22;3349;49.830;8.748;2023-02-28T03:05:57;-2.20;68.00
6627;DHT22;3349;49.830;8.748;2023-02-28T03:08:24;-2.20;68.70
6627;DHT22;3349;49.830;8.748;2023-02-28T03:10:56;-2.30;68.80
6627;DHT22;3349;49.830;8.748;2023-02-28T03:13:45;-2.40;68.70
6627;DHT22;3349;49.830;8.748;2023-02-28T03:19:32;-2.50;69.80
6627;DHT22;3349;49.830;8.748;2023-02-28T03:22:14;-2.30;70.20
6627;DHT22;3349;49.830;8.748;2023-02-28T03:24:48;-2.60;69.90
6627;DHT22;3349;49.830;8.748;2023-02-28T03:27:21;-2.70;70.40
6627;DHT22;3349;49.830;8.748;2023-02-28T03:29:57;-2.70;70.70
6627;DHT22;3349;49.830;8.748;2023-02-28T03:32:28;-2.80;71.40
6627;DHT22;3349;49.830;8.748;2023-02-28T03:35:00;-2.80;71.80
6627;DHT22;3349;49.830;8.748;2023-02-28T03:37:32;-2.80;72.80
6627;DHT22;3349;49.830;8.748;2023-02-28T03:40:06;-2.80;73.80
6627;DHT22;3349;49.830;8.748;2023-02-28T03:42:38;-2.80;75.10
6627;DHT22;3349;49.830;8.748;2023-02-28T03:45:11;-2.70;75.50
6627;DHT22;3349;49.830;8.748;2023-02-28T03:47:42;-2.80;76.10
6627;DHT22;3349;49.830;8.748;2023-02-28T03:50:16;-2.70;76.30
6627;DHT22;3349;49.830;8.748;2023-02-28T03:52:47;-2.70;76.30
6627;DHT22;3349;49.830;8.748;2023-02-28T03:55:16;-2.70;76.30
6627;DHT22;3349;49.830;8.748;2023-02-28T03:57:52;-2.70;76.30
6627;DHT22;3349;49.830;8.748;2023-02-28T04:00:27;-2.70;76.30
6627;DHT22;3349;49.830;8.748;2023-02-28T04:02:54;-2.60;76.90
6627;DHT22;3349;49.830;8.748;2023-02-28T04:05:22;-2.60;77.80
6627;DHT22;3349;49.830;8.748;2023-02-28T04:07:50;-2.60;76.50
6627;DHT22;3349;49.830;8.748;2023-02-28T04:10:17;-2.60;76.40
6627;DHT22;3349;49.830;8.748;2023-02-28T04:12:44;-2.60;76.40
6627;DHT22;3349;49.830;8.748;2023-02-28T04:15:11;-2.50;76.80
6627;DHT22;3349;49.830;8.748;2023-02-28T04:17:38;-2.50;76.50
6627;DHT22;3349;49.830;8.748;2023-02-28T04:20:05;-2.50;76.40
6627;DHT22;3349;49.830;8.748;2023-02-28T04:22:35;-2.40;76.60
6627;DHT22;3349;49.830;8.748;2023-02-28T04:25:05;-2.40;76.60
6627;DHT22;3349;49.830;8.748;2023-02-28T04:27:32;-2.40;76.60
6627;DHT22;3349;49.830;8.748;2023-02-28T04:29:58;-2.40;76.50
6627;DHT22;3349;49.830;8.748;2023-02-28T04:32:25;-2.30;75.80
6627;DHT22;3349;49.830;8.748;2023-02-28T04:34:52;-2.20;76.40
6627;DHT22;3349;49.830;8.748;2023-02-28T04:37:19;-2.20;75.50
6627;DHT22;3349;49.830;8.748;2023-02-28T04:39:46;-2.30;74.70
6627;DHT22;3349;49.830;8.748;2023-02-28T04:42:14;-2.30;74.60
6627;DHT22;3349;49.830;8.748;2023-02-28T04:44:41;-2.30;74.40
6627;DHT22;3349;49.830;8.748;2023-02-28T04:47:07;-2.30;74.80
6627;DHT22;3349;49.830;8.748;2023-02-28T04:49:35;-2.40;74.70
6627;DHT22;3349;49.830;8.748;2023-02-28T04:52:01;-2.30;75.70
6627;DHT22;3349;49.830;8.748;2023-02-28T04:54:29;-2.30;75.60
6627;DHT22;3349;49.830;8.748;2023-02-28T04:56:55;-2.30;75.20
6627;DHT22;3349;49.830;8.748;2023-02-28T04:59:24;-2.40;74.80
6627;DHT22;3349;49.830;8.748;2023-02-28T05:01:50;-2.40;74.40
6627;DHT22;3349;49.830;8.748;2023-02-28T05:04:17;-2.40;74.50
6627;DHT22;3349;49.830;8.748;2023-02-28T05:06:44;-2.50;73.60
6627;DHT22;3349;49.830;8.748;2023-02-28T05:09:11;-2.40;74.30
6627;DHT22;3349;49.830;8.748;2023-02-28T05:11:38;-2.40;74.10
6627;DHT22;3349;49.830;8.748;2023-02-28T05:14:06;-2.50;73.60
6627;DHT22;3349;49.830;8.748;2023-02-28T05:16:35;-2.40;74.10
6627;DHT22;3349;49.830;8.748;2023-02-28T05:19:01;-2.50;73.70
6627;DHT22;3349;49.830;8.748;2023-02-28T05:21:30;-2.50;73.50
6627;DHT22;3349;49.830;8.748;2023-02-28T05:23:58;-2.50;73.70
6627;DHT22;3349;49.830;8.748;2023-02-28T05:26:26;-2.50;73.00
6627;DHT22;3349;49.830;8.748;2023-02-28T05:28:54;-2.60;73.40
6627;DHT22;3349;49.830;8.748;2023-02-28T05:31:20;-2.50;73.10
6627;DHT22;3349;49.830;8.748;2023-02-28T05:33:48;-2.50;72.80
6627;DHT22;3349;49.830;8.748;2023-02-28T05:36:15;-2.50;72.80
6627;DHT22;3349;49.830;8.748;2023-02-28T05:38:42;-2.50;72.60
6627;DHT22;3349;49.830;8.748;2023-02-28T05:41:10;-2.50;72.80
6627;DHT22;3349;49.830;8.748;2023-02-28T05:43:37;-2.40;73.70
6627;DHT22;3349;49.830;8.748;2023-02-28T05:46:04;-2.50;72.10
6627;DHT22;3349;49.830;8.748;2023-02-28T05:48:32;-2.50;72.10
6627;DHT22;3349;49.830;8.748;2023-02-28T05:51:00;-2.50;72.10
6627;DHT22;3349;49.830;8.748;2023-02-28T05:53:28;-2.60;72.00
6627;DHT22;3349;49.830;8.748;2023-02-28T05:55:55;-2.50;72.70
6627;DHT22;3349;49.830;8.748;2023-02-28T05:58:22;-2.50;72.90
6627;DHT22;3349;49.830;8.748;2023-02-28T06:00:51;-2.50;72.10
6627;DHT22;3349;49.830;8.748;2023-02-28T06:03:18;-2.50;72.30
6627;DHT22;3349;49.830;8.748;2023-02-28T06:05:44;-2.50;72.10
6627;DHT22;3349;49.830;8.748;2023-02-28T06:08:12;-2.40;72.20
6627;DHT22;3349;49.830;8.748;2023-02-28T06:10:39;-2.50;72.20
6627;DHT22;3349;49.830;8.748;2023-02-28T06:13:05;-2.50;72.10
6627;DHT22;3349;49.830;8.748;2023-02-28T06:15:32;-2.40;72.20
6627;DHT22;3349;49.830;8.748;2023-02-28T06:17:59;-2.40;72.30
6627;DHT22;3349;49.830;8.748;2023-02-28T06:20:27;-2.40;72.20
6627;DHT22;3349;49.830;8.748;2023-02-28T06:22:55;-2.40;72.20
6627;DHT22;3349;49.830;8.748;2023-02-28T06:25:26;-2.30;72.30
6627;DHT22;3349;49.830;8.748;2023-02-28T06:27:53;-2.40;71.70
6627;DHT22;3349;49.830;8.748;2023-02-28T06:30:20;-2.40;71.20
6627;DHT22;3349;49.830;8.748;2023-02-28T06:32:50;-2.40;71.10
6627;DHT22;3349;49.830;8.748;2023-02-28T06:35:17;-2.50;70.50
6627;DHT22;3349;49.830;8.748;2023-02-28T06:37:44;-2.50;70.70
6627;DHT22;3349;49.830;8.748;2023-02-28T06:40:13;-2.60;70.80
6627;DHT22;3349;49.830;8.748;2023-02-28T06:42:41;-2.70;70.90
6627;DHT22;3349;49.830;8.748;2023-02-28T06:45:09;-2.70;71.80
6627;DHT22;3349;49.830;8.748;2023-02-28T06:47:36;-2.70;71.90
6627;DHT22;3349;49.830;8.748;2023-02-28T06:50:04;-2.80;71.80
6627;DHT22;3349;49.830;8.748;2023-02-28T06:52:31;-2.70;71.90
6627;DHT22;3349;49.830;8.748;2023-02-28T06:54:58;-2.70;71.90
6627;DHT22;3349;49.830;8.748;2023-02-28T06:57:28;-2.70;71.90
6627;DHT22;3349;49.830;8.748;2023-02-28T06:59:58;-2.70;71.90
6627;DHT22;3349;49.830;8.748;2023-02-28T07:02:25;-2.70;72.00
6627;DHT22;3349;49.830;8.748;2023-02-28T07:04:52;-2.70;71.90
6627;DHT22;3349;49.830;8.748;2023-02-28T07:07:19;-2.70;71.90
6627;DHT22;3349;49.830;8.748;2023-02-28T07:09:45;-2.50;73.20
6627;DHT22;3349;49.830;8.748;2023-02-28T07:12:12;-2.50;73.70
6627;DHT22;3349;49.830;8.748;2023-02-28T07:14:39;-2.40;73.70
6627;DHT22;3349;49.830;8.748;2023-02-28T07:17:08;-2.30;72.40
6627;DHT22;3349;49.830;8.748;2023-02-28T07:19:36;-2.20;72.40
6627;DHT22;3349;49.830;8.748;2023-02-28T07:22:03;-2.10;72.70
6627;DHT22;3349;49.830;8.748;2023-02-28T07:24:30;-2.10;70.70
6627;DHT22;3349;49.830;8.748;2023-02-28T07:26:56;-2.10;70.30
6627;DHT22;3349;49.830;8.748;2023-02-28T07:29:24;-2.00;69.80
6627;DHT22;3349;49.830;8.748;2023-02-28T07:31:51;-2.00;69.50
6627;DHT22;3349;49.830;8.748;2023-02-28T07:34:20;-1.90;69.20
6627;DHT22;3349;49.830;8.748;2023-02-28T07:36:46;-1.80;68.40
6627;DHT22;3349;49.830;8.748;2023-02-28T07:39:13;-1.80;68.40
6627;DHT22;3349;49.830;8.748;2023-02-28T07:41:40;-1.70;68.40
6627;DHT22;3349;49.830;8.748;2023-02-28T07:44:09;-1.60;68.00
6627;DHT22;3349;49.830;8.748;2023-02-28T07:46:35;-1.50;67.40
6627;DHT22;3349;49.830;8.748;2023-02-28T07:49:03;-1.50;66.00
6627;DHT22;3349;49.830;8.748;2023-02-28T07:51:31;-1.40;65.10
6627;DHT22;3349;49.830;8.748;2023-02-28T07:53:58;-1.30;64.50
6627;DHT22;3349;49.830;8.748;2023-02-28T07:56:25;-1.20;64.60
6627;DHT22;3349;49.830;8.748;2023-02-28T07:58:51;-1.20;64.20
6627;DHT22;3349;49.830;8.748;2023-02-28T08:01:18;-1.10;63.40
6627;DHT22;3349;49.830;8.748;2023-02-28T08:03:48;-1.00;63.40
6627;DHT22;3349;49.830;8.748;2023-02-28T08:06:17;-0.90;62.00
6627;DHT22;3349;49.830;8.748;2023-02-28T08:08:45;-0.80;61.10
6627;DHT22;3349;49.830;8.748;2023-02-28T08:11:13;-0.80;60.30
6627;DHT22;3349;49.830;8.748;2023-02-28T08:13:40;-0.60;60.20
6627;DHT22;3349;49.830;8.748;2023-02-28T08:16:09;-0.50;59.20
6627;DHT22;3349;49.830;8.748;2023-02-28T08:18:37;-0.50;59.70
6627;DHT22;3349;49.830;8.748;2023-02-28T08:21:06;-0.30;58.30
6627;DHT22;3349;49.830;8.748;2023-02-28T08:23:33;-0.30;58.00
6627;DHT22;3349;49.830;8.748;2023-02-28T08:26:02;-0.20;57.00
6627;DHT22;3349;49.830;8.748;2023-02-28T08:28:29;-0.10;57.10
6627;DHT22;3349;49.830;8.748;2023-02-28T08:30:56;0.00;57.20
6627;DHT22;3349;49.830;8.748;2023-02-28T08:33:23;0.00;56.80
6627;DHT22;3349;49.830;8.748;2023-02-28T08:35:52;0.10;56.40
6627;DHT22;3349;49.830;8.748;2023-02-28T08:38:20;0.20;55.80
6627;DHT22;3349;49.830;8.748;2023-02-28T08:40:46;0.20;55.80
6627;DHT22;3349;49.830;8.748;2023-02-28T08:43:14;0.30;55.60
6627;DHT22;3349;49.830;8.748;2023-02-28T08:45:41;0.30;55.40
6627;DHT22;3349;49.830;8.748;2023-02-28T08:48:08;0.40;54.60
6627;DHT22;3349;49.830;8.748;2023-02-28T08:50:35;0.50;55.20
6627;DHT22;3349;49.830;8.748;2023-02-28T08:53:02;0.50;55.20
6627;DHT22;3349;49.830;8.748;2023-02-28T08:55:28;0.70;55.10
6627;DHT22;3349;49.830;8.748;2023-02-28T08:57:55;0.60;53.80
6627;DHT22;3349;49.830;8.748;2023-02-28T09:00:24;0.80;53.60
6627;DHT22;3349;49.830;8.748;2023-02-28T09:02:51;0.80;54.00
6627;DHT22;3349;49.830;8.748;2023-02-28T09:05:20;0.90;54.10
6627;DHT22;3349;49.830;8.748;2023-02-28T09:07:46;1.00;53.00
6627;DHT22;3349;49.830;8.748;2023-02-28T09:10:13;1.10;53.90
6627;DHT22;3349;49.830;8.748;2023-02-28T09:12:40;1.20;53.60
6627;DHT22;3349;49.830;8.748;2023-02-28T09:15:08;1.30;52.60
6627;DHT22;3349;49.830;8.748;2023-02-28T09:17:36;1.40;52.00
6627;DHT22;3349;49.830;8.748;2023-02-28T09:20:03;1.40;51.50
6627;DHT22;3349;49.830;8.748;2023-02-28T09:22:31;1.50;50.60
6627;DHT22;3349;49.830;8.748;2023-02-28T09:24:57;1.70;50.80
6627;DHT22;3349;49.830;8.748;2023-02-28T09:27:24;1.90;48.30
6627;DHT22;3349;49.830;8.748;2023-02-28T09:29:51;1.90;47.40
6627;DHT22;3349;49.830;8.748;2023-02-28T09:32:18;2.00;48.10
6627;DHT22;3349;49.830;8.748;2023-02-28T09:34:46;2.20;48.20
6627;DHT22;3349;49.830;8.748;2023-02-28T09:37:13;2.30;47.20
6627;DHT22;3349;49.830;8.748;2023-02-28T09:39:40;2.50;45.80
6627;DHT22;3349;49.830;8.748;2023-02-28T09:42:18;2.70;45.70
6627;DHT22;3349;49.830;8.748;2023-02-28T09:44:47;2.80;45.40
6627;DHT22;3349;49.830;8.748;2023-02-28T09:47:18;3.00;43.80
6627;DHT22;3349;49.830;8.748;2023-02-28T09:49:50;3.10;43.80
6627;DHT22;3349;49.830;8.748;2023-02-28T09:52:19;3.20;43.90
6627;DHT22;3349;49.830;8.748;2023-02-28T09:54:46;3.50;43.40
6627;DHT22;3349;49.830;8.748;2023-02-28T09:57:17;3.70;41.50
6627;DHT22;3349;49.830;8.748;2023-02-28T09:59:54;3.70;40.80
6627;DHT22;3349;49.830;8.748;2023-02-28T10:05:37;4.20;40.10
6627;DHT22;3349;49.830;8.748;2023-02-28T10:08:10;4.30;39.90
6627;DHT22;3349;49.830;8.748;2023-02-28T10:10:40;4.50;39.70
6627;DHT22;3349;49.830;8.748;2023-02-28T10:13:15;4.50;39.00
6627;DHT22;3349;49.830;8.748;2023-02-28T10:15:45;4.50;37.70
6627;DHT22;3349;49.830;8.748;2023-02-28T10:18:16;4.40;37.90
6627;DHT22;3349;49.830;8.748;2023-02-28T10:20:47;4.30;37.70
6627;DHT22;3349;49.830;8.748;2023-02-28T10:23:20;4.50;38.30
6627;DHT22;3349;49.830;8.748;2023-02-28T10:25:52;5.00;37.10
6627;DHT22;3349;49.830;8.748;2023-02-28T10:28:20;5.40;34.70
6627;DHT22;3349;49.830;8.748;2023-02-28T10:30:48;5.80;34.60
6627;DHT22;3349;49.830;8.748;2023-02-28T10:33:21;6.30;33.10
6627;DHT22;3349;49.830;8.748;2023-02-28T10:35:50;6.20;33.30
6627;DHT22;3349;49.830;8.748;2023-02-28T10:38:20;6.50;32.20
6627;DHT22;3349;49.830;8.748;2023-02-28T10:40:47;6.50;31.50
6627;DHT22;3349;49.830;8.748;2023-02-28T10:43:21;6.50;31.80
6627;DHT22;3349;49.830;8.748;2023-02-28T10:46:01;6.70;31.30
6627;DHT22;3349;49.830;8.748;2023-02-28T10:48:37;6.90;30.80
6627;DHT22;3349;49.830;8.748;2023-02-28T10:51:08;7.00;31.30
6627;DHT22;3349;49.830;8.748;2023-02-28T10:53:45;7.20;30.30
6627;DHT22;3349;49.830;8.748;2023-02-28T10:56:16;7.70;30.70
6627;DHT22;3349;49.830;8.748;2023-02-28T10:58:50;8.60;29.80
6627;DHT22;3349;49.830;8.748;2023-02-28T11:01:19;8.50;29.20
6627;DHT22;3349;49.830;8.748;2023-02-28T11:03:47;8.80;29.30
6627;DHT22;3349;49.830;8.748;2023-02-28T11:06:19;9.10;29.80
6627;DHT22;3349;49.830;8.748;2023-02-28T11:08:49;9.70;28.10
6627;DHT22;3349;49.830;8.748;2023-02-28T11:11:17;10.00;26.70
6627;DHT22;3349;49.830;8.748;2023-02-28T11:13:48;9.70;26.90
6627;DHT22;3349;49.830;8.748;2023-02-28T11:16:16;9.20;27.40
6627;DHT22;3349;49.830;8.748;2023-02-28T11:18:48;8.50;28.20
6627;DHT22;3349;49.830;8.748;2023-02-28T11:21:21;8.10;28.60
6627;DHT22;3349;49.830;8.748;2023-02-28T11:23:51;7.80;29.40
6627;DHT22;3349;49.830;8.748;2023-02-28T11:26:40;7.80;29.50
6627;DHT22;3349;49.830;8.748;2023-02-28T11:29:20;8.00;29.80
6627;DHT22;3349;49.830;8.748;2023-02-28T11:32:06;7.90;29.40
6627;DHT22;3349;49.830;8.748;2023-02-28T11:34:38;9.60;28.20
6627;DHT22;3349;49.830;8.748;2023-02-28T11:37:12;11.30;25.40
6627;DHT22;3349;49.830;8.748;2023-02-28T11:39:39;12.50;23.80
6627;DHT22;3349;49.830;8.748;2023-02-28T11:42:16;13.20;23.40
6627;DHT22;3349;49.830;8.748;2023-02-28T11:44:58;14.30;22.20
6627;DHT22;3349;49.830;8.748;2023-02-28T11:47:34;13.60;21.40
6627;DHT22;3349;49.830;8.748;2023-02-28T11:50:20;12.50;23.10
6627;DHT22;3349;49.830;8.748;2023-02-28T11:52:52;11.70;23.40
6627;DHT22;3349;49.830;8.748;2023-02-28T11:55:23;12.00;24.20
6627;DHT22;3349;49.830;8.748;2023-02-28T11:58:04;11.60;24.00
6627;DHT22;3349;49.830;8.748;2023-02-28T12:00:44;10.90;24.40
6627;DHT22;3349;49.830;8.748;2023-02-28T12:03:27;10.50;24.90
6627;DHT22;3349;49.830;8.748;2023-02-28T12:06:05;10.80;25.20
6627;DHT22;3349;49.830;8.748;2023-02-28T12:08:53;10.50;24.90
6627;DHT22;3349;49.830;8.748;2023-02-28T12:11:33;9.70;26.20
6627;DHT22;3349;49.830;8.748;2023-02-28T12:14:18;10.50;25.20
6627;DHT22;3349;49.830;8.748;2023-02-28T12:16:57;12.20;25.00
6627;DHT22;3349;49.830;8.748;2023-02-28T12:19:29;11.80;23.70
6627;DHT22;3349;49.830;8.748;2023-02-28T12:22:20;12.20;23.40
6627;DHT22;3349;49.830;8.748;2023-02-28T12:25:13;11.60;23.20
6627;DHT22;3349;49.830;8.748;2023-02-28T12:27:46;10.70;24.30
6627;DHT22;3349;49.830;8.748;2023-02-28T12:30:17;10.80;25.10
6627;DHT22;3349;49.830;8.748;2023-02-28T12:32:47;11.60;25.00
6627;DHT22;3349;49.830;8.748;2023-02-28T12:35:19;12.40;23.30
6627;DHT22;3349;49.830;8.748;2023-02-28T12:37:53;13.00;22.80
6627;DHT22;3349;49.830;8.748;2023-02-28T12:40:26;13.30;22.60
6627;DHT22;3349;49.830;8.748;2023-02-28T12:42:58;13.50;22.20
6627;DHT22;3349;49.830;8.748;2023-02-28T12:45:40;13.30;21.70
6627;DHT22;3349;49.830;8.748;2023-02-28T12:48:10;12.60;22.90
6627;DHT22;3349;49.830;8.748;2023-02-28T12:50:40;11.30;23.30
6627;DHT22;3349;49.830;8.748;2023-02-28T12:53:11;10.10;24.70
6627;DHT22;3349;49.830;8.748;2023-02-28T12:55:46;9.20;25.90
6627;DHT22;3349;49.830;8.748;2023-02-28T12:58:20;8.60;27.50
6627;DHT22;3349;49.830;8.748;2023-02-28T13:01:04;7.90;28.70
6627;DHT22;3349;49.830;8.748;2023-02-28T13:03:51;7.40;29.10
6627;DHT22;3349;49.830;8.748;2023-02-28T13:06:52;7.10;30.20
6627;DHT22;3349;49.830;8.748;2023-02-28T13:09:23;6.90;30.10
6627;DHT22;3349;49.830;8.748;2023-02-28T13:11:52;6.90;30.10
6627;DHT22;3349;49.830;8.748;2023-02-28T13:14:24;6.80;30.80
6627;DHT22;3349;49.830;8.748;2023-02-28T13:16:58;6.40;29.80
6627;DHT22;3349;49.830;8.748;2023-02-28T13:19:27;6.30;31.00
6627;DHT22;3349;49.830;8.748;2023-02-28T13:21:56;6.20;30.70
6627;DHT22;3349;49.830;8.748;2023-02-28T13:24:42;5.90;31.00
6627;DHT22;3349;49.830;8.748;2023-02-28T13:27:38;5.70;31.30
6627;DHT22;3349;49.830;8.748;2023-02-28T13:33:28;5.60;31.90
6627;DHT22;3349;49.830;8.748;2023-02-28T13:36:25;5.50;32.70
6627;DHT22;3349;49.830;8.748;2023-02-28T13:38:52;5.50;32.80
6627;DHT22;3349;49.830;8.748;2023-02-28T13:41:44;5.50;32.70
6627;DHT22;3349;49.830;8.748;2023-02-28T13:44:16;5.50;33.30
6627;DHT22;3349;49.830;8.748;2023-02-28T13:47:21;5.40;33.10
6627;DHT22;3349;49.830;8.748;2023-02-28T13:49:51;5.40;33.50
6627;DHT22;3349;49.830;8.748;2023-02-28T13:52:22;5.30;33.60
6627;DHT22;3349;49.830;8.748;2023-02-28T13:55:19;5.20;34.00
6627;DHT22;3349;49.830;8.748;2023-02-28T13:57:58;5.20;33.80
6627;DHT22;3349;49.830;8.748;2023-02-28T14:00:46;5.20;33.90
6627;DHT22;3349;49.830;8.748;2023-02-28T14:03:35;5.10;34.10
6627;DHT22;3349;49.830;8.748;2023-02-28T14:06:17;5.10;33.90
6627;DHT22;3349;49.830;8.748;2023-02-28T14:08:52;5.10;33.40
6627;DHT22;3349;49.830;8.748;2023-02-28T14:11:29;5.00;33.50
6627;DHT22;3349;49.830;8.748;2023-02-28T14:13:57;5.00;33.40
6627;DHT22;3349;49.830;8.748;2023-02-28T14:16:26;5.00;33.80
6627;DHT22;3349;49.830;8.748;2023-02-28T14:18:58;4.90;34.10
6627;DHT22;3349;49.830;8.748;2023-02-28T14:21:29;4.90;34.30
6627;DHT22;3349;49.830;8.748;2023-02-28T14:24:24;5.00;33.60
6627;DHT22;3349;49.830;8.748;2023-02-28T14:27:09;5.20;33.90
6627;DHT22;3349;49.830;8.748;2023-02-28T14:32:47;5.30;33.50
6627;DHT22;3349;49.830;8.748;2023-02-28T14:35:35;5.30;33.80
6627;DHT22;3349;49.830;8.748;2023-02-28T14:38:14;5.40;33.40
6627;DHT22;3349;49.830;8.748;2023-02-28T14:40:45;5.60;34.00
6627;DHT22;3349;49.830;8.748;2023-02-28T14:43:20;5.90;33.40
6627;DHT22;3349;49.830;8.748;2023-02-28T14:45:50;6.40;33.50
6627;DHT22;3349;49.830;8.748;2023-02-28T14:48:20;6.80;32.70
6627;DHT22;3349;49.830;8.748;2023-02-28T14:50:52;7.00;30.90
6627;DHT22;3349;49.830;8.748;2023-02-28T14:53:21;7.10;31.00
6627;DHT22;3349;49.830;8.748;2023-02-28T14:55:50;7.30;30.40
6627;DHT22;3349;49.830;8.748;2023-02-28T14:58:23;7.20;30.30
6627;DHT22;3349;49.830;8.748;2023-02-28T15:00:52;7.10;30.20
6627;DHT22;3349;49.830;8.748;2023-02-28T15:03:24;7.00;30.20
6627;DHT22;3349;49.830;8.748;2023-02-28T15:05:52;6.80;31.00
6627;DHT22;3349;49.830;8.748;2023-02-28T15:08:19;6.60;31.20
6627;DHT22;3349;49.830;8.748;2023-02-28T15:10:51;6.40;32.00
6627;DHT22;3349;49.830;8.748;2023-02-28T15:13:20;6.20;31.80
6627;DHT22;3349;49.830;8.748;2023-02-28T15:15:53;6.10;32.20
6627;DHT22;3349;49.830;8.748;2023-02-28T15:18:31;5.90;32.30
6627;DHT22;3349;49.830;8.748;2023-02-28T15:21:03;5.90;33.40
6627;DHT22;3349;49.830;8.748;2023-02-28T15:23:31;5.90;33.50
6627;DHT22;3349;49.830;8.748;2023-02-28T15:25:58;5.90;33.40
6627;DHT22;3349;49.830;8.748;2023-02-28T15:28:26;6.00;33.00
6627;DHT22;3349;49.830;8.748;2023-02-28T15:30:56;6.00;33.20
6627;DHT22;3349;49.830;8.748;2023-02-28T15:33:24;5.90;33.00
6627;DHT22;3349;49.830;8.748;2023-02-28T15:36:05;6.00;32.70
6627;DHT22;3349;49.830;8.748;2023-02-28T15:38:34;5.90;33.20
6627;DHT22;3349;49.830;8.748;2023-02-28T15:41:02;5.90;33.20
6627;DHT22;3349;49.830;8.748;2023-02-28T15:43:35;6.00;32.80
6627;DHT22;3349;49.830;8.748;2023-02-28T15:46:03;5.90;33.10
6627;DHT22;3349;49.830;8.748;2023-02-28T15:48:33;5.90;33.00
6627;DHT22;3349;49.830;8.748;2023-02-28T15:51:06;5.90;33.60
6627;DHT22;3349;49.830;8.748;2023-02-28T15:53:37;5.90;33.20
6627;DHT22;3349;49.830;8.748;2023-02-28T15:56:12;5.90;33.10
6627;DHT22;3349;49.830;8.748;2023-02-28T15:58:42;5.90;33.20
6627;DHT22;3349;49.830;8.748;2023-02-28T16:01:20;5.80;33.10
6627;DHT22;3349;49.830;8.748;2023-02-28T16:03:48;6.00;33.20
6627;DHT22;3349;49.830;8.748;2023-02-28T16:06:36;6.00;32.70
6627;DHT22;3349;49.830;8.748;2023-02-28T16:09:04;6.10;33.00
6627;DHT22;3349;49.830;8.748;2023-02-28T16:11:33;6.20;32.70
6627;DHT22;3349;49.830;8.748;2023-02-28T16:14:01;6.40;32.80
6627;DHT22;3349;49.830;8.748;2023-02-28T16:16:28;6.60;32.10
6627;DHT22;3349;49.830;8.748;2023-02-28T16:18:55;6.60;32.00
6627;DHT22;3349;49.830;8.748;2023-02-28T16:21:24;6.60;31.70
6627;DHT22;3349;49.830;8.748;2023-02-28T16:23:51;6.70;31.90
6627;DHT22;3349;49.830;8.748;2023-02-28T16:26:21;6.70;31.50
6627;DHT22;3349;49.830;8.748;2023-02-28T16:28:48;6.70;31.70
6627;DHT22;3349;49.830;8.748;2023-02-28T16:31:18;6.90;31.70
6627;DHT22;3349;49.830;8.748;2023-02-28T16:33:45;7.00;31.60
6627;DHT22;3349;49.830;8.748;2023-02-28T16:36:17;7.10;31.40
6627;DHT22;3349;49.830;8.748;2023-02-28T16:38:45;6.90;31.60
6627;DHT22;3349;49.830;8.748;2023-02-28T16:41:14;6.50;31.80
6627;DHT22;3349;49.830;8.748;2023-02-28T16:43:45;6.30;32.40
6627;DHT22;3349;49.830;8.748;2023-02-28T16:46:13;5.80;33.00